Golden Municipal Airport (CYGE) Print Article Font Size
 
Location
City:    Golden, British Columbia, Canada
ICAO: CYGE

Details
Type: Airport (Airfield)
Latitude: 51°17'57"N (51.299167)
Longitude: 116°58'56"W (-116.982221)
Datum: WGS 1984
Elevation: 2575 ft (785 m)
Runways: 1
Golden Airport - Aircraft Requirements
Transport Canada Info 2016 CYGE Aerodrome info Transport Canada
Longest: 4500 × 75 ft (1372 × 23 m), paved

Time
Time Zone: UTC-8 (DST-7)
Local Time: 31 Jul 2012 14:02 PDT

Weather
METAR: CYGE  312000Z 01005KT 30SM FEW035 SCT060TCU BKN090 BKN200 21/12 A3003 RMK SC1TCU3AC2CS1 SH DIST E SLP169
 
 
www.gcmap.com/airport/CYGE